Time;durP1;ratioP1;P1;durP2;ratioP2;P2;SDS_P1;SDS_P2;PMS_P1;PMS_P2;Temp;Humidity;BMP_temperature;BMP_pressure;BME280_temperature;BME280_humidity;BME280_pressure;Samples;Min_cycle;Max_cycle;Signal;HPM_P1;HPM_P2
2024/02/21 00:01:59;;;;;;;;;;;9.60;99.90;;;9.64;73.83;101147.97;5039944;28;19945;-83
2024/02/21 00:04:26;;;;;;;;;;;9.60;99.90;;;9.67;73.93;101139.59;5040336;28;19943;-84
2024/02/21 00:06:54;;;;;;;;;;;9.60;99.90;;;9.67;73.74;101134.28;5039478;28;19970;-84
2024/02/21 00:09:21;;;;;;;;;;;9.60;99.90;;;9.69;73.87;101136.75;5039718;28;19968;-83
2024/02/21 00:11:48;;;;;;;;;;;9.70;99.90;;;9.71;73.69;101138.22;5039337;28;19921;-83
2024/02/21 00:14:15;;;;;;;;;;;9.70;99.90;;;9.73;73.73;101124.69;5039571;28;20348;-84
2024/02/21 00:16:42;;;;;;;;;;;9.70;99.90;;;9.72;73.62;101129.22;5042349;28;19925;-84
2024/02/21 00:19:09;;;;;;;;;;;9.70;99.90;;;9.69;73.59;101134.06;5039151;28;20019;-84
2024/02/21 00:21:37;;;;;;;;;;;9.70;99.90;;;9.62;73.27;101123.38;5039691;28;19928;-83
2024/02/21 00:24:06;;;;;;;;;;;9.60;99.90;;;9.57;73.65;101120.44;5039190;28;19921;-84
2024/02/21 00:26:33;;;;;;;;;;;9.60;99.90;;;9.64;73.83;101102.69;5039951;28;19925;-83
2024/02/21 00:29:00;;;;;;;;;;;9.60;99.90;;;9.67;73.95;101093.50;5039715;28;19943;-84
2024/02/21 00:31:27;;;;;;;;;;;9.70;99.90;;;9.61;74.12;101102.22;5039487;28;19921;-83
2024/02/21 00:33:54;;;;;;;;;;;9.60;99.90;;;9.66;73.99;101087.34;5038796;28;20345;-83
2024/02/21 00:36:21;;;;;;;;;;;9.70;99.90;;;9.69;74.00;101094.13;5042884;28;19920;-84
2024/02/21 00:38:48;;;;;;;;;;;9.70;99.90;;;9.70;74.02;101093.94;5039202;28;19927;-84
2024/02/21 00:41:16;;;;;;;;;;;9.70;99.90;;;9.65;73.66;101079.53;5038902;28;19925;-84
2024/02/21 00:43:43;;;;;;;;;;;9.60;99.90;;;9.56;73.72;101076.16;5038499;28;19956;-83
2024/02/21 00:46:11;;;;;;;;;;;9.70;99.90;;;9.58;73.74;101079.47;5039180;28;20021;-84
2024/02/21 00:48:38;;;;;;;;;;;9.60;99.90;;;9.55;73.83;101080.66;5038643;28;19952;-83
2024/02/21 00:51:05;;;;;;;;;;;9.60;99.90;;;9.61;74.05;101081.75;5038804;28;19987;-83
2024/02/21 00:53:32;;;;;;;;;;;9.60;99.90;;;9.67;74.01;101074.88;5038826;28;19921;-83
2024/02/21 00:55:59;;;;;;;;;;;9.60;99.90;;;9.70;74.01;101066.47;5037590;28;19921;-83
2024/02/21 00:58:27;;;;;;;;;;;9.70;99.90;;;9.52;73.72;101073.09;5038567;28;19943;-84
2024/02/21 01:00:54;;;;;;;;;;;9.60;99.90;;;9.54;74.05;101067.56;5038411;28;19947;-83
2024/02/21 01:03:21;;;;;;;;;;;9.60;99.90;;;9.59;74.13;101070.47;5037457;28;20447;-84
2024/02/21 01:05:49;;;;;;;;;;;9.60;99.90;;;9.65;74.24;101059.06;5038483;28;20352;-83
2024/02/21 01:08:16;;;;;;;;;;;9.60;99.90;;;9.68;73.92;101061.34;5038492;28;20428;-83
2024/02/21 01:10:43;;;;;;;;;;;9.70;99.90;;;9.61;73.87;101054.28;5038974;28;19971;-83
2024/02/21 01:13:10;;;;;;;;;;;9.60;99.90;;;9.63;74.12;101038.97;5038322;28;19921;-84
2024/02/21 01:15:38;;;;;;;;;;;9.60;99.90;;;9.65;73.87;101039.59;5038796;28;19948;-84
2024/02/21 01:18:06;;;;;;;;;;;9.60;99.90;;;9.60;73.78;101032.16;5039016;28;19994;-84
2024/02/21 01:20:33;;;;;;;;;;;9.60;99.90;;;9.58;74.19;101046.72;5038496;28;19921;-83
2024/02/21 01:23:00;;;;;;;;;;;9.60;99.90;;;9.52;73.94;101033.13;5038191;28;20442;-84
2024/02/21 01:25:27;;;;;;;;;;;9.60;99.90;;;9.47;73.93;101029.41;5038410;28;20380;-84
2024/02/21 01:27:54;;;;;;;;;;;9.50;99.90;;;9.45;74.35;101020.75;5038974;28;19921;-84
2024/02/21 01:30:21;;;;;;;;;;;9.60;99.90;;;9.44;74.04;101000.47;5038714;28;19921;-83
2024/02/21 01:32:50;;;;;;;;;;;9.60;99.90;;;9.44;74.41;100995.97;5038446;28;19929;-84
2024/02/21 01:35:18;;;;;;;;;;;9.60;99.90;;;9.44;74.12;100992.50;5038819;28;19924;-83
2024/02/21 01:37:45;;;;;;;;;;;9.50;99.90;;;9.47;74.27;100995.63;5038267;28;19964;-84
2024/02/21 01:40:13;;;;;;;;;;;9.60;99.90;;;9.47;74.30;100992.94;5037967;28;19928;-83
2024/02/21 01:42:40;;;;;;;;;;;9.60;99.90;;;9.46;74.28;100999.25;5038095;28;19953;-84
2024/02/21 01:45:08;;;;;;;;;;;9.50;99.90;;;9.40;74.35;100993.88;5038802;28;20396;-84
2024/02/21 01:47:35;;;;;;;;;;;9.50;99.90;;;9.43;74.50;100989.00;5038369;28;19988;-84
2024/02/21 01:50:05;;;;;;;;;;;9.50;99.90;;;9.48;74.42;100986.59;5038072;28;19944;-83
2024/02/21 01:52:33;;;;;;;;;;;9.50;99.90;;;9.49;74.61;100992.75;5037564;28;19921;-83
2024/02/21 01:55:01;;;;;;;;;;;9.50;99.90;;;9.53;74.50;100981.53;5037408;28;19921;-83
2024/02/21 01:57:28;;;;;;;;;;;9.50;99.90;;;9.59;74.53;100989.75;5038055;28;20380;-83
2024/02/21 01:59:56;;;;;;;;;;;9.60;99.90;;;9.57;74.33;100979.31;5038152;28;19925;-84
2024/02/21 02:02:23;;;;;;;;;;;9.60;99.90;;;9.59;74.46;100985.25;5038588;28;19920;-84
2024/02/21 02:04:50;;;;;;;;;;;9.60;99.90;;;9.53;74.42;100978.03;5038034;28;20455;-83
2024/02/21 02:07:19;;;;;;;;;;;9.50;99.90;;;9.57;74.42;100971.31;5038547;28;19921;-84
2024/02/21 02:09:46;;;;;;;;;;;9.60;99.90;;;9.60;74.37;100970.91;5038102;28;19955;-84
2024/02/21 02:12:13;;;;;;;;;;;9.60;99.90;;;9.59;74.03;100971.94;5037573;28;20359;-83
2024/02/21 02:14:40;;;;;;;;;;;9.60;99.90;;;9.50;74.49;100959.78;5037919;28;20015;-84
2024/02/21 02:17:09;;;;;;;;;;;9.50;99.90;;;9.55;74.59;100946.72;5038667;28;20376;-84
2024/02/21 02:19:36;;;;;;;;;;;9.50;99.90;;;9.47;74.36;100946.88;5038621;28;19930;-84
2024/02/21 02:22:10;;;;;;;;;;;9.50;99.90;;;9.49;74.34;100942.97;5042211;28;20392;-84
2024/02/21 02:24:39;;;;;;;;;;;9.50;99.90;;;9.42;74.30;100934.13;5039421;28;19921;-84
2024/02/21 02:27:06;;;;;;;;;;;9.50;99.90;;;9.38;74.47;100929.38;5038270;28;20459;-83
2024/02/21 02:29:33;;;;;;;;;;;9.40;99.90;;;9.39;74.52;100933.69;5038039;28;20433;-83
2024/02/21 02:32:01;;;;;;;;;;;9.40;99.90;;;9.35;74.54;100929.75;5037935;28;19956;-83
2024/02/21 02:34:28;;;;;;;;;;;9.40;99.90;;;9.32;74.80;100922.13;5038828;28;19925;-83
2024/02/21 02:36:55;;;;;;;;;;;9.40;99.90;;;9.27;74.74;100918.25;5038155;28;20487;-83
2024/02/21 02:39:22;;;;;;;;;;;9.40;99.90;;;9.26;75.02;100905.09;5037605;28;19921;-84
2024/02/21 02:41:51;;;;;;;;;;;9.40;99.90;;;9.32;74.86;100919.47;5037412;28;20438;-83
2024/02/21 02:44:18;;;;;;;;;;;9.40;99.90;;;9.33;74.86;100899.84;5037807;28;19925;-83
2024/02/21 02:46:45;;;;;;;;;;;9.40;99.90;;;9.39;74.87;100894.56;5037639;28;20081;-84
2024/02/21 02:49:12;;;;;;;;;;;9.40;99.90;;;9.44;74.74;100896.66;5037617;28;20000;-83
2024/02/21 02:51:42;;;;;;;;;;;9.40;99.90;;;9.36;74.50;100899.44;5038163;28;19921;-84
2024/02/21 02:54:09;;;;;;;;;;;9.40;99.90;;;9.32;74.33;100891.06;5036979;28;20307;-83
2024/02/21 02:56:36;;;;;;;;;;;9.30;99.90;;;9.32;74.67;100891.06;5037114;28;19956;-84
2024/02/21 02:59:05;;;;;;;;;;;9.30;99.90;;;9.39;74.50;100891.09;5037258;28;19944;-84
2024/02/21 03:01:35;;;;;;;;;;;9.30;99.90;;;9.33;74.38;100890.03;5036886;28;19921;-83
2024/02/21 03:04:02;;;;;;;;;;;9.30;99.90;;;9.36;74.51;100891.47;5037177;28;20351;-84
2024/02/21 03:06:29;;;;;;;;;;;9.30;99.90;;;9.40;74.61;100884.75;5037647;28;19921;-83
2024/02/21 03:08:57;;;;;;;;;;;9.30;99.90;;;9.38;74.66;100887.59;5037541;28;20011;-84
2024/02/21 03:11:28;;;;;;;;;;;9.30;99.90;;;9.39;74.84;100889.25;5037765;28;19921;-83
2024/02/21 03:13:56;;;;;;;;;;;9.30;99.90;;;9.32;74.92;100876.88;5037474;28;19925;-83
2024/02/21 03:16:26;;;;;;;;;;;9.30;99.90;;;9.38;74.92;100882.28;5037875;28;19927;-84
2024/02/21 03:18:53;;;;;;;;;;;9.30;99.90;;;9.42;74.98;100872.91;5035961;28;20358;-84
2024/02/21 03:21:20;;;;;;;;;;;9.40;99.90;;;9.38;74.46;100878.81;5037599;28;20359;-83
2024/02/21 03:23:47;;;;;;;;;;;9.30;99.90;;;9.35;74.88;100879.19;5037882;28;19928;-83
2024/02/21 03:26:17;;;;;;;;;;;9.30;99.90;;;9.37;74.90;100872.66;5036610;28;19921;-84
2024/02/21 03:28:45;;;;;;;;;;;9.40;99.90;;;9.41;74.69;100865.09;5037150;28;19921;-84
2024/02/21 03:31:13;;;;;;;;;;;9.40;99.90;;;9.35;74.52;100855.22;5037341;28;19985;-84
2024/02/21 03:33:43;;;;;;;;;;;9.40;99.90;;;9.33;74.55;100849.28;5036748;28;19920;-84
2024/02/21 03:36:15;;;;;;;;;;;9.30;99.90;;;9.36;74.82;100852.34;5037246;28;20347;-84
2024/02/21 03:38:45;;;;;;;;;;;9.30;99.90;;;9.38;74.68;100853.00;5037259;28;19924;-83
2024/02/21 03:41:12;;;;;;;;;;;9.40;99.90;;;9.27;74.45;100854.38;5037556;28;19921;-84
2024/02/21 03:43:39;;;;;;;;;;;9.30;99.90;;;9.29;74.91;100857.66;5037248;28;20032;-84
2024/02/21 03:46:06;;;;;;;;;;;9.30;99.90;;;9.25;74.90;100855.56;5037211;28;19925;-83
2024/02/21 03:48:33;;;;;;;;;;;9.30;99.90;;;9.31;75.10;100859.28;5037552;28;19945;-84
2024/02/21 03:51:02;;;;;;;;;;;9.30;99.90;;;9.31;74.85;100853.97;5037162;28;19960;-84
2024/02/21 03:53:32;;;;;;;;;;;9.30;99.90;;;9.31;74.90;100856.63;5037190;28;19921;-84
2024/02/21 03:56:03;;;;;;;;;;;9.30;99.90;;;9.31;74.70;100864.59;5036405;28;19999;-83
2024/02/21 03:58:31;;;;;;;;;;;9.30;99.90;;;9.33;74.78;100862.59;5037110;28;19943;-84
2024/02/21 04:01:00;;;;;;;;;;;9.30;99.90;;;9.34;74.75;100857.06;5036103;28;19921;-83
2024/02/21 04:03:27;;;;;;;;;;;9.30;99.90;;;9.38;74.95;100870.81;5036706;28;19921;-84
2024/02/21 04:05:55;;;;;;;;;;;9.30;99.90;;;9.35;74.84;100874.69;5036984;28;19921;-84
2024/02/21 04:08:23;;;;;;;;;;;9.30;99.90;;;9.34;74.94;100872.22;5037351;28;20407;-83
2024/02/21 04:10:50;;;;;;;;;;;9.30;99.90;;;9.36;74.77;100872.84;5036144;28;20384;-84
2024/02/21 04:13:17;;;;;;;;;;;9.40;99.90;;;9.37;74.80;100870.00;5037297;28;20347;-84
2024/02/21 04:15:44;;;;;;;;;;;9.40;99.90;;;9.40;74.87;100874.09;5036899;28;19927;-84
2024/02/21 04:18:11;;;;;;;;;;;9.40;99.90;;;9.45;74.66;100875.16;5037070;28;19921;-84
2024/02/21 04:20:39;;;;;;;;;;;9.40;99.90;;;9.36;74.32;100865.66;5037639;28;19925;-83
2024/02/21 04:23:06;;;;;;;;;;;9.40;99.90;;;9.38;74.45;100862.84;5056314;28;19968;-84
2024/02/21 04:25:34;;;;;;;;;;;9.40;99.90;;;9.44;74.63;100865.53;5056144;28;19925;-84
2024/02/21 04:28:01;;;;;;;;;;;9.40;99.90;;;9.46;74.35;100874.13;5057117;28;19952;-84
2024/02/21 04:30:28;;;;;;;;;;;9.40;99.90;;;9.39;74.25;100857.31;5058268;28;19920;-84
2024/02/21 04:32:55;;;;;;;;;;;9.40;99.90;;;9.44;74.46;100860.22;5055861;28;20368;-84
2024/02/21 04:35:23;;;;;;;;;;;9.40;99.90;;;9.49;74.42;100867.63;5056481;28;19921;-84
2024/02/21 04:37:50;;;;;;;;;;;9.50;99.90;;;9.48;74.04;100865.97;5058218;28;20304;-84
2024/02/21 04:40:17;;;;;;;;;;;9.40;99.90;;;9.53;74.16;100867.03;5059232;28;19925;-84
2024/02/21 04:42:46;;;;;;;;;;;9.50;99.90;;;9.45;73.90;100861.03;5058781;28;19921;-85
2024/02/21 04:45:13;;;;;;;;;;;9.40;99.90;;;9.42;74.07;100853.41;5059197;28;19951;-84
2024/02/21 04:47:40;;;;;;;;;;;9.40;99.90;;;9.45;74.54;100856.53;5058178;28;20403;-85
2024/02/21 04:50:08;;;;;;;;;;;9.40;99.90;;;9.47;74.13;100853.69;5055931;28;19924;-83
2024/02/21 04:52:35;;;;;;;;;;;9.40;99.90;;;9.52;74.16;100851.25;5058056;28;19928;-84
2024/02/21 04:55:02;;;;;;;;;;;9.50;99.90;;;9.53;74.16;100851.06;5057766;28;19959;-84
2024/02/21 04:57:29;;;;;;;;;;;9.50;99.90;;;9.39;73.21;100851.16;5058359;28;19922;-84
2024/02/21 04:59:58;;;;;;;;;;;9.50;99.90;;;9.37;73.15;100848.72;5059576;28;19921;-84
2024/02/21 05:02:26;;;;;;;;;;;9.40;99.90;;;9.37;73.03;100845.19;5061012;28;19921;-84
2024/02/21 05:04:53;;;;;;;;;;;9.40;99.90;;;9.37;73.42;100850.50;5060523;28;19920;-84
2024/02/21 05:07:20;;;;;;;;;;;9.40;99.90;;;9.32;72.98;100851.13;5060247;28;19921;-84
2024/02/21 05:09:47;;;;;;;;;;;9.40;99.90;;;9.29;73.35;100841.69;5059228;28;20433;-84
2024/02/21 05:12:15;;;;;;;;;;;9.40;99.90;;;9.31;73.31;100843.31;5060072;28;19921;-85
2024/02/21 05:14:42;;;;;;;;;;;9.30;99.90;;;9.29;72.83;100846.19;5059048;28;20372;-84
2024/02/21 05:17:10;;;;;;;;;;;9.40;99.90;;;9.27;73.35;100843.72;5059389;28;19925;-84
2024/02/21 05:19:38;;;;;;;;;;;9.40;99.90;;;9.22;73.20;100835.50;5059122;28;19955;-84
2024/02/21 05:22:06;;;;;;;;;;;9.30;99.90;;;9.31;73.55;100824.69;5058156;28;20376;-83
2024/02/21 05:24:33;;;;;;;;;;;9.40;99.90;;;9.35;73.29;100818.78;5058932;28;19921;-84
2024/02/21 05:27:00;;;;;;;;;;;9.40;99.90;;;9.39;73.53;100824.53;5057765;28;19963;-84
2024/02/21 05:29:27;;;;;;;;;;;9.40;99.90;;;9.38;72.90;100836.22;5059916;28;19975;-84
2024/02/21 05:31:58;;;;;;;;;;;9.40;99.90;;;9.33;73.30;100828.81;5058244;28;20015;-84
2024/02/21 05:34:27;;;;;;;;;;;9.40;99.90;;;9.35;73.58;100815.28;5059243;28;19943;-84
2024/02/21 05:36:54;;;;;;;;;;;9.40;99.90;;;9.31;73.00;100817.53;5058298;28;19943;-84
2024/02/21 05:39:22;;;;;;;;;;;9.40;99.90;;;9.25;72.84;100824.44;5056968;28;20454;-84
2024/02/21 05:41:50;;;;;;;;;;;9.30;99.90;;;9.26;73.10;100810.13;5058495;28;19928;-84
2024/02/21 05:44:17;;;;;;;;;;;9.30;99.90;;;9.17;72.71;100805.13;5059612;28;19924;-84
2024/02/21 05:46:45;;;;;;;;;;;9.30;99.90;;;9.20;73.01;100800.25;5058706;28;19920;-84
2024/02/21 05:49:12;;;;;;;;;;;9.30;99.90;;;9.26;73.09;100815.44;5055759;28;20000;-84
2024/02/21 05:51:40;;;;;;;;;;;9.40;99.90;;;9.28;73.12;100800.13;5058842;28;20358;-84
2024/02/21 05:54:08;;;;;;;;;;;9.40;99.90;;;9.34;72.89;100805.69;5060675;28;19932;-83
2024/02/21 05:56:35;;;;;;;;;;;9.40;99.90;;;9.32;72.75;100797.91;5060110;28;19988;-84
2024/02/21 05:59:02;;;;;;;;;;;9.30;99.90;;;9.35;72.63;100799.31;5059705;28;19927;-86
2024/02/21 06:01:29;;;;;;;;;;;9.40;99.90;;;9.37;72.57;100797.28;5060259;28;20384;-83
2024/02/21 06:03:57;;;;;;;;;;;9.40;99.90;;;9.36;72.45;100796.47;5060330;28;19921;-83
2024/02/21 06:06:24;;;;;;;;;;;9.40;99.90;;;9.34;72.31;100789.72;5056690;28;20392;-85
2024/02/21 06:08:53;;;;;;;;;;;9.40;99.90;;;9.35;72.33;100791.34;5053866;28;20338;-85
2024/02/21 06:11:23;;;;;;;;;;;9.40;99.90;;;9.35;72.50;100775.38;5036450;28;19971;-85
2024/02/21 06:13:50;;;;;;;;;;;9.40;99.90;;;9.33;72.41;100774.75;5035290;28;19925;-85
2024/02/21 06:16:17;;;;;;;;;;;9.40;99.90;;;9.30;72.36;100773.28;5036278;28;19925;-85
2024/02/21 06:18:44;;;;;;;;;;;9.30;99.90;;;9.28;72.59;100768.19;5053099;28;19943;-86
2024/02/21 06:21:12;;;;;;;;;;;9.30;99.90;;;9.32;72.37;100765.09;5055657;28;19974;-85
2024/02/21 06:23:39;;;;;;;;;;;9.40;99.90;;;9.34;72.76;100761.25;5056173;28;19921;-85
2024/02/21 06:26:08;;;;;;;;;;;9.40;99.90;;;9.33;72.21;100756.94;5055521;28;19924;-85
2024/02/21 06:28:35;;;;;;;;;;;9.40;99.90;;;9.34;72.18;100749.78;5057130;28;19927;-84
2024/02/21 06:31:03;;;;;;;;;;;9.40;99.90;;;9.33;72.38;100753.47;5055387;28;19992;-86
2024/02/21 06:33:32;;;;;;;;;;;9.30;99.90;;;9.28;72.27;100760.19;5054924;28;20059;-86
2024/02/21 06:36:04;;;;;;;;;;;9.40;99.90;;;9.30;72.27;100754.66;5054816;28;19927;-86
2024/02/21 06:38:31;;;;;;;;;;;9.30;99.90;;;9.30;72.15;100746.69;5056076;28;19966;-84
2024/02/21 06:41:00;;;;;;;;;;;9.30;99.90;;;9.29;72.59;100735.22;5057696;28;19920;-84
2024/02/21 06:43:28;;;;;;;;;;;9.40;99.90;;;9.33;72.32;100737.50;5056427;28;19933;-85
2024/02/21 06:45:56;;;;;;;;;;;9.40;99.90;;;9.34;72.37;100731.97;5055376;28;19927;-84
2024/02/21 06:48:23;;;;;;;;;;;9.40;99.90;;;9.37;72.40;100730.75;5044180;28;19921;-82
2024/02/21 06:50:51;;;;;;;;;;;9.40;99.90;;;9.34;72.22;100729.31;5040848;28;19921;-82
2024/02/21 06:53:18;;;;;;;;;;;9.40;99.90;;;9.26;72.09;100726.78;5058892;28;19928;-82
2024/02/21 06:55:45;;;;;;;;;;;9.40;99.90;;;9.29;72.56;100715.75;5045352;28;19921;-82
2024/02/21 06:58:13;;;;;;;;;;;9.40;99.90;;;9.32;72.27;100722.53;5038636;28;19970;-82
2024/02/21 07:00:43;;;;;;;;;;;9.40;99.90;;;9.33;72.23;100724.19;5039787;28;19944;-81
2024/02/21 07:03:10;;;;;;;;;;;9.30;99.90;;;9.37;72.01;100720.09;5068433;28;19921;-81
2024/02/21 07:05:37;;;;;;;;;;;9.40;99.90;;;9.28;71.72;100733.56;5038914;28;20023;-82
2024/02/21 07:08:05;;;;;;;;;;;9.40;99.90;;;9.28;71.87;100733.56;5039681;28;19921;-82
2024/02/21 07:10:32;;;;;;;;;;;9.40;99.90;;;9.35;72.25;100732.78;5046755;28;19928;-81
2024/02/21 07:13:00;;;;;;;;;;;9.40;99.90;;;9.38;72.07;100730.56;5058955;28;19928;-82
2024/02/21 07:15:28;;;;;;;;;;;9.40;99.90;;;9.32;71.68;100726.03;5046767;28;20011;-82
2024/02/21 07:17:56;;;;;;;;;;;9.40;99.90;;;9.30;71.50;100725.38;5038507;28;19921;-81
2024/02/21 07:20:24;;;;;;;;;;;9.40;99.90;;;9.33;72.04;100729.50;5038939;28;20024;-82
2024/02/21 07:22:51;;;;;;;;;;;9.40;99.90;;;9.37;71.74;100728.91;5038352;28;19927;-82
2024/02/21 07:25:18;;;;;;;;;;;9.40;99.90;;;9.34;71.67;100729.31;5038069;28;19921;-82
2024/02/21 07:27:46;;;;;;;;;;;9.40;99.90;;;9.38;71.77;100722.56;5053769;28;20372;-82
2024/02/21 07:30:14;;;;;;;;;;;9.50;99.90;;;9.34;71.48;100726.66;5038028;28;19936;-81
2024/02/21 07:32:41;;;;;;;;;;;9.40;99.90;;;9.37;71.84;100717.44;5053361;28;19928;-82
2024/02/21 07:35:11;;;;;;;;;;;9.40;99.90;;;9.43;71.98;100711.34;5047081;28;19924;-81
2024/02/21 07:37:39;;;;;;;;;;;9.50;99.90;;;9.44;71.41;100718.31;5060727;28;19928;-82
2024/02/21 07:40:07;;;;;;;;;;;9.50;99.90;;;9.42;71.45;100709.66;5046022;28;19921;-80
2024/02/21 07:42:35;;;;;;;;;;;9.50;99.90;;;9.40;71.24;100709.88;5038865;28;20352;-82
2024/02/21 07:45:03;;;;;;;;;;;9.50;99.90;;;9.41;71.38;100713.34;5038673;28;19924;-79
2024/02/21 07:47:30;;;;;;;;;;;9.50;99.90;;;9.41;71.12;100710.69;5037931;28;19921;-81
2024/02/21 07:49:57;;;;;;;;;;;9.50;99.90;;;9.41;71.34;100711.50;5039255;28;19925;-81
2024/02/21 07:52:25;;;;;;;;;;;9.50;99.90;;;9.38;71.26;100706.59;5055036;28;20422;-81
2024/02/21 07:54:52;;;;;;;;;;;9.50;99.90;;;9.37;71.14;100701.47;5057611;28;19966;-81
2024/02/21 07:57:20;;;;;;;;;;;9.50;99.90;;;9.42;71.23;100699.03;5041360;28;20343;-81
2024/02/21 07:59:47;;;;;;;;;;;9.50;99.90;;;9.44;71.50;100689.84;5039409;28;19921;-81
2024/02/21 08:02:15;;;;;;;;;;;9.60;99.90;;;9.46;71.12;100687.78;5039080;28;19960;-81
2024/02/21 08:04:42;;;;;;;;;;;9.60;99.90;;;9.47;71.49;100686.78;5039498;28;19974;-81
2024/02/21 08:07:09;;;;;;;;;;;9.60;99.90;;;9.36;70.87;100681.19;5039535;28;19921;-81
2024/02/21 08:09:40;;;;;;;;;;;9.60;99.90;;;9.39;71.72;100680.81;5039694;28;20359;-81
2024/02/21 08:12:08;;;;;;;;;;;9.60;99.90;;;9.45;71.76;100680.00;5055450;28;19921;-81
2024/02/21 08:14:35;;;;;;;;;;;9.60;99.90;;;9.48;71.55;100671.63;5043691;28;19927;-82
2024/02/21 08:17:02;;;;;;;;;;;9.60;99.90;;;9.48;71.51;100668.97;5041980;28;19967;-81
2024/02/21 08:19:30;;;;;;;;;;;9.60;99.90;;;9.51;71.45;100657.91;5042509;28;19921;-81
2024/02/21 08:21:57;;;;;;;;;;;9.60;99.90;;;9.52;71.63;100655.06;5043403;28;20021;-81
2024/02/21 08:24:24;;;;;;;;;;;9.60;99.90;;;9.53;71.16;100648.72;5041873;28;19921;-81
2024/02/21 08:26:53;;;;;;;;;;;9.60;99.90;;;9.56;71.41;100655.47;5059375;28;19971;-81
2024/02/21 08:29:20;;;;;;;;;;;9.70;99.90;;;9.63;71.79;100644.84;5063234;28;19987;-82
2024/02/21 08:31:47;;;;;;;;;;;9.70;99.90;;;9.59;71.56;100638.28;5062509;28;19921;-82
2024/02/21 08:34:14;;;;;;;;;;;9.70;99.90;;;9.44;71.64;100628.59;5064010;28;19936;-81
2024/02/21 08:36:42;;;;;;;;;;;9.70;99.90;;;9.47;71.88;100635.38;5054264;28;19920;-81
2024/02/21 08:39:09;;;;;;;;;;;9.70;99.90;;;9.55;72.15;100635.19;5043167;28;19925;-81
2024/02/21 08:41:36;;;;;;;;;;;9.50;99.90;;;9.60;71.95;100624.75;5043221;28;19921;-81
2024/02/21 08:44:05;;;;;;;;;;;9.70;99.90;;;9.60;71.97;100634.59;5043659;28;19975;-81
2024/02/21 08:46:38;;;;;;;;;;;9.70;99.90;;;9.52;71.63;100617.78;5043242;28;19921;-81
2024/02/21 08:49:05;;;;;;;;;;;9.40;99.90;;;9.49;72.17;100633.34;5042136;28;19967;-81
2024/02/21 08:51:35;;;;;;;;;;;9.70;99.90;;;9.43;71.36;100629.63;5039952;28;20027;-81
2024/02/21 08:54:02;;;;;;;;;;;9.70;99.90;;;9.48;72.29;100631.69;5039294;28;19921;-81
2024/02/21 08:56:31;;;;;;;;;;;9.70;99.90;;;9.51;72.29;100620.63;5038521;28;19920;-81
2024/02/21 08:58:58;;;;;;;;;;;9.70;99.90;;;9.49;71.70;100618.19;5039391;28;19925;-81
2024/02/21 09:01:27;;;;;;;;;;;9.70;99.90;;;9.44;71.53;100615.28;5039661;28;19959;-81
2024/02/21 09:03:56;;;;;;;;;;;9.60;99.90;;;9.47;71.27;100609.59;5042948;28;20392;-81
2024/02/21 09:06:24;;;;;;;;;;;9.60;99.90;;;9.39;70.98;100609.75;5040843;28;20343;-82
2024/02/21 09:08:51;;;;;;;;;;;9.60;99.90;;;9.47;71.36;100603.44;5039277;28;19928;-81
2024/02/21 09:11:19;;;;;;;;;;;9.60;99.90;;;9.50;71.58;100600.34;5039214;28;19921;-81
2024/02/21 09:13:46;;;;;;;;;;;9.60;99.90;;;9.47;71.44;100604.25;5039124;28;19925;-81
2024/02/21 09:16:14;;;;;;;;;;;9.60;99.90;;;9.46;71.10;100609.75;5039056;28;19956;-81
2024/02/21 09:18:43;;;;;;;;;;;9.60;99.90;;;9.43;70.81;100599.53;5038460;28;19928;-81
2024/02/21 09:21:10;;;;;;;;;;;9.60;99.90;;;9.41;71.04;100586.41;5042779;28;19921;-81
2024/02/21 09:23:37;;;;;;;;;;;9.60;99.90;;;9.43;70.67;100594.22;5057984;28;20019;-81
2024/02/21 09:26:04;;;;;;;;;;;9.60;99.90;;;9.38;70.65;100594.81;5058157;28;19920;-81
2024/02/21 09:28:33;;;;;;;;;;;9.60;99.90;;;9.37;70.87;100597.66;5056770;28;20335;-81
2024/02/21 09:31:00;;;;;;;;;;;9.60;99.90;;;9.39;70.48;100583.13;5058873;28;20296;-81
2024/02/21 09:33:32;;;;;;;;;;;9.60;99.90;;;9.34;69.90;100584.75;5047650;28;19928;-81
2024/02/21 09:36:02;;;;;;;;;;;9.60;99.90;;;9.37;69.97;100579.03;5038819;28;20319;-81
2024/02/21 09:38:31;;;;;;;;;;;9.50;99.90;;;9.40;70.46;100579.44;5038880;28;19924;-81
2024/02/21 09:41:01;;;;;;;;;;;9.60;99.90;;;9.47;70.75;100572.31;5041492;28;19944;-81
2024/02/21 09:43:30;;;;;;;;;;;9.60;99.90;;;9.40;70.08;100570.66;5042415;28;19921;-81
2024/02/21 09:45:59;;;;;;;;;;;9.60;99.90;;;9.40;70.62;100562.66;5039735;28;19921;-82
2024/02/21 09:48:34;;;;;;;;;;;9.60;99.90;;;9.47;70.87;100571.50;5040822;28;19971;-81
2024/02/21 09:51:03;;;;;;;;;;;9.60;99.90;;;9.49;70.94;100562.28;5052487;28;20470;-81
2024/02/21 09:53:31;;;;;;;;;;;9.60;99.90;;;9.57;70.61;100568.44;5062053;28;19921;-82
2024/02/21 09:55:59;;;;;;;;;;;9.70;99.90;;;9.66;70.86;100570.72;5062032;28;19970;-82
2024/02/21 09:58:27;;;;;;;;;;;9.80;99.90;;;9.70;70.89;100574.59;5062527;28;19920;-81
2024/02/21 10:00:54;;;;;;;;;;;9.80;99.90;;;9.75;70.51;100580.13;5062455;28;19920;-81
2024/02/21 10:03:22;;;;;;;;;;;9.80;99.90;;;9.76;70.82;100573.81;5062779;28;20392;-81
2024/02/21 10:05:50;;;;;;;;;;;9.90;99.90;;;9.73;70.26;100568.06;5061840;28;19947;-81
2024/02/21 10:08:20;;;;;;;;;;;9.90;99.90;;;9.67;70.17;100571.53;5062340;28;19921;-81
2024/02/21 10:10:47;;;;;;;;;;;9.80;99.90;;;9.70;70.61;100576.44;5061892;28;19921;-81
2024/02/21 10:13:25;;;;;;;;;;;9.90;99.90;;;9.67;70.36;100567.03;5062504;28;19970;-81
2024/02/21 10:16:02;;;;;;;;;;;9.90;99.90;;;9.71;70.81;100552.28;5061608;28;19921;-81
2024/02/21 10:18:29;;;;;;;;;;;9.90;99.90;;;9.66;70.32;100554.75;5056399;28;19992;-82
2024/02/21 10:21:04;;;;;;;;;;;9.90;99.90;;;9.63;69.89;100544.47;5040148;28;20328;-81
2024/02/21 10:23:43;;;;;;;;;;;9.90;99.90;;;9.65;70.05;100552.25;5041504;28;19921;-82
2024/02/21 10:26:11;;;;;;;;;;;9.90;99.90;;;9.66;70.47;100541.41;5040379;28;19963;-82
2024/02/21 10:28:41;;;;;;;;;;;9.90;99.90;;;9.69;70.10;100543.66;5038215;28;19944;-83
2024/02/21 10:31:11;;;;;;;;;;;9.90;99.90;;;9.69;69.31;100543.66;5039052;28;19924;-82
2024/02/21 10:33:38;;;;;;;;;;;9.90;99.90;;;9.72;69.16;100540.59;5040976;28;19921;-83
2024/02/21 10:36:10;;;;;;;;;;;10.00;99.90;;;9.74;69.33;100535.06;5048519;28;19921;-83
2024/02/21 10:38:38;;;;;;;;;;;9.90;99.90;;;9.82;69.62;100532.22;5051671;28;19956;-82
2024/02/21 10:41:07;;;;;;;;;;;10.00;99.90;;;9.79;68.79;100524.63;5057081;28;19921;-82
2024/02/21 10:43:40;;;;;;;;;;;10.00;99.90;;;9.81;69.06;100525.25;5041965;28;19984;-82
2024/02/21 10:46:08;;;;;;;;;;;10.00;99.90;;;9.82;68.26;100510.09;5041374;28;19921;-82
2024/02/21 10:48:45;;;;;;;;;;;10.00;99.90;;;9.85;68.19;100514.97;5042648;28;20296;-82
2024/02/21 10:51:19;;;;;;;;;;;10.10;99.90;;;9.88;68.35;100502.06;5041826;28;19987;-82
2024/02/21 10:53:48;;;;;;;;;;;10.10;99.90;;;9.82;68.07;100502.09;5042015;28;20434;-82
2024/02/21 10:56:27;;;;;;;;;;;10.10;99.90;;;9.88;67.91;100496.75;5042136;28;19921;-82
2024/02/21 10:58:55;;;;;;;;;;;10.10;99.90;;;9.83;67.71;100487.75;5041999;28;19921;-82
2024/02/21 11:01:23;;;;;;;;;;;10.10;99.90;;;9.85;67.90;100478.50;5041787;28;19927;-83
2024/02/21 11:03:51;;;;;;;;;;;10.10;99.90;;;9.92;68.00;100475.84;5048312;28;20554;-82
2024/02/21 11:06:19;;;;;;;;;;;10.20;99.90;;;9.89;67.19;100465.59;5061915;28;19951;-82
2024/02/21 11:08:46;;;;;;;;;;;10.20;99.90;;;9.93;67.64;100440.19;5061424;28;19920;-82
2024/02/21 11:11:17;;;;;;;;;;;10.20;99.90;;;10.01;68.21;100439.97;5061210;28;19927;-82
2024/02/21 11:13:45;;;;;;;;;;;10.30;99.90;;;10.04;67.73;100428.88;5060389;28;19921;-82
2024/02/21 11:16:22;;;;;;;;;;;10.30;99.90;;;10.08;67.56;100416.78;5060381;28;19921;-82
2024/02/21 11:18:49;;;;;;;;;;;10.40;99.90;;;10.15;67.41;100404.28;5060311;28;19920;-83
2024/02/21 11:21:16;;;;;;;;;;;10.40;99.90;;;10.21;67.17;100408.75;5060949;28;19975;-83
2024/02/21 11:23:43;;;;;;;;;;;10.50;99.90;;;10.18;66.64;100392.38;5057643;28;19920;-82
2024/02/21 11:26:11;;;;;;;;;;;10.50;99.90;;;10.18;66.27;100384.38;5058707;28;19924;-83
2024/02/21 11:28:38;;;;;;;;;;;10.50;99.90;;;10.25;66.87;100367.38;5058161;28;19970;-83